createdAt,value
2024-04-23T00:02:16.293Z,2.00
2024-04-23T00:04:44.813Z,1.60
2024-04-23T00:07:15.358Z,2.55
2024-04-23T00:09:42.796Z,1.80
2024-04-23T00:12:10.175Z,2.20
2024-04-23T00:14:37.397Z,2.03
2024-04-23T00:17:06.217Z,1.50
2024-04-23T00:19:34.865Z,1.60
2024-04-23T00:22:02.480Z,1.52
2024-04-23T00:24:29.790Z,1.40
2024-04-23T00:26:59.966Z,1.67
2024-04-23T00:29:29.400Z,1.35
2024-04-23T00:31:57.489Z,1.70
2024-04-23T00:34:26.102Z,1.33
2024-04-23T00:36:58.594Z,2.03
2024-04-23T00:39:27.900Z,1.70
2024-04-23T00:41:55.261Z,1.30
2024-04-23T00:44:22.862Z,1.45
2024-04-23T00:46:51.462Z,1.30
2024-04-23T00:49:19.821Z,1.67
2024-04-23T00:51:52.071Z,1.58
2024-04-23T00:54:23.889Z,1.40
2024-04-23T00:56:52.949Z,1.20
2024-04-23T00:59:20.958Z,1.40
2024-04-23T01:01:49.418Z,1.23
2024-04-23T01:04:16.968Z,1.30
2024-04-23T01:06:44.459Z,1.27
2024-04-23T01:09:12.095Z,1.45
2024-04-23T01:11:39.804Z,1.00
2024-04-23T01:14:07.256Z,1.00
2024-04-23T01:16:41.012Z,1.10
2024-04-23T01:19:23.149Z,1.27
2024-04-23T01:22:06.591Z,1.10
2024-04-23T01:24:46.163Z,0.93
2024-04-23T01:27:14.047Z,1.05
2024-04-23T01:29:41.393Z,0.98
2024-04-23T01:32:09.982Z,1.20
2024-04-23T01:34:39.299Z,1.00
2024-04-23T01:37:09.136Z,0.90
2024-04-23T01:39:37.278Z,0.90
2024-04-23T01:42:05.019Z,1.05
2024-04-23T01:44:34.341Z,1.00
2024-04-23T01:47:01.806Z,0.85
2024-04-23T01:49:29.313Z,1.10
2024-04-23T01:51:56.936Z,0.90
2024-04-23T01:54:24.837Z,1.10
2024-04-23T01:56:52.216Z,1.08
2024-04-23T01:59:19.616Z,0.80
2024-04-23T02:01:53.843Z,0.80
2024-04-23T02:04:22.474Z,0.70
2024-04-23T02:06:50.882Z,1.00
2024-04-23T02:09:18.966Z,0.80
2024-04-23T02:11:46.265Z,0.82
2024-04-23T02:14:14.112Z,0.90
2024-04-23T02:16:41.460Z,0.70
2024-04-23T02:19:08.962Z,0.90
2024-04-23T02:21:36.657Z,0.95
2024-04-23T02:24:04.481Z,0.90
2024-04-23T02:26:32.316Z,1.10
2024-04-23T02:28:59.876Z,1.08
2024-04-23T02:31:27.293Z,1.00
2024-04-23T02:33:55.109Z,1.05
2024-04-23T02:36:23.044Z,0.80
2024-04-23T02:38:50.739Z,1.05
2024-04-23T02:41:18.337Z,1.00
2024-04-23T02:43:45.876Z,0.98
2024-04-23T02:46:13.244Z,0.90
2024-04-23T02:48:40.525Z,1.27
2024-04-23T02:51:07.884Z,0.82
2024-04-23T02:53:35.104Z,1.00
2024-04-23T02:56:02.473Z,1.15
2024-04-23T02:58:29.838Z,1.08
2024-04-23T03:00:57.129Z,0.95
2024-04-23T03:03:24.409Z,0.88
2024-04-23T03:05:51.932Z,1.00
2024-04-23T03:08:19.151Z,0.70
2024-04-23T03:10:46.416Z,1.08
2024-04-23T03:13:13.930Z,1.10
2024-04-23T03:15:41.667Z,1.15
2024-04-23T03:18:09.390Z,0.80
2024-04-23T03:20:37.142Z,0.65
2024-04-23T03:23:04.922Z,1.00
2024-04-23T03:25:32.748Z,0.90
2024-04-23T03:28:00.049Z,0.77
2024-04-23T03:30:27.412Z,0.90
2024-04-23T03:32:55.436Z,1.08
2024-04-23T03:35:23.181Z,0.80
2024-04-23T03:37:50.933Z,0.90
2024-04-23T03:40:18.671Z,1.17
2024-04-23T03:42:46.318Z,1.20
2024-04-23T03:45:13.617Z,1.20
2024-04-23T03:47:43.298Z,1.20
2024-04-23T03:50:10.682Z,1.20
2024-04-23T03:52:38.011Z,1.25
2024-04-23T03:55:05.775Z,1.20
2024-04-23T03:57:33.071Z,1.05
2024-04-23T04:00:00.665Z,1.00
2024-04-23T04:05:56.715Z,1.10
2024-04-23T04:08:24.525Z,1.00
2024-04-23T04:10:51.931Z,1.15
2024-04-23T04:13:23.893Z,1.20
2024-04-23T04:15:52.446Z,1.33
2024-04-23T04:18:20.514Z,1.00
2024-04-23T04:20:47.947Z,1.30
2024-04-23T04:23:15.730Z,1.10
2024-04-23T04:25:43.552Z,1.20
2024-04-23T04:28:10.910Z,1.10
2024-04-23T04:30:38.408Z,0.90
2024-04-23T04:33:05.915Z,1.10
2024-04-23T04:35:33.326Z,1.40
2024-04-23T04:38:00.657Z,1.67
2024-04-23T04:40:28.543Z,2.22
2024-04-23T04:42:57.347Z,2.03
2024-04-23T04:45:24.918Z,1.60
2024-04-23T04:47:52.745Z,1.50
2024-04-23T04:50:20.304Z,1.42
2024-04-23T04:52:47.760Z,1.50
2024-04-23T04:55:15.466Z,2.47
2024-04-23T04:57:42.772Z,2.67
2024-04-23T05:00:10.857Z,3.65
2024-04-23T05:02:39.595Z,2.80
2024-04-23T05:05:07.255Z,3.58
2024-04-23T05:07:34.728Z,3.60
2024-04-23T05:10:02.204Z,2.90
2024-04-23T05:12:30.170Z,2.60
2024-04-23T05:14:57.572Z,2.78
2024-04-23T05:17:24.884Z,2.97
2024-04-23T05:19:52.259Z,3.13
2024-04-23T05:22:19.631Z,2.47
2024-04-23T05:24:46.920Z,2.80
2024-04-23T05:27:19.959Z,2.63
2024-04-23T05:29:55.249Z,2.90
2024-04-23T05:32:45.079Z,1.88
2024-04-23T05:35:14.428Z,2.00
2024-04-23T05:37:44.047Z,1.70
2024-04-23T05:40:19.830Z,1.92
2024-04-23T05:42:47.536Z,2.67
2024-04-23T05:45:17.026Z,3.75
2024-04-23T05:48:22.523Z,2.90
2024-04-23T05:51:32.988Z,2.80
2024-04-23T05:55:21.541Z,4.03
2024-04-23T05:57:49.209Z,3.08
2024-04-23T06:00:17.225Z,2.60
2024-04-23T06:02:53.783Z,2.78
2024-04-23T06:05:21.781Z,2.42
2024-04-23T06:07:49.726Z,2.22
2024-04-23T06:10:17.410Z,2.40
2024-04-23T06:12:46.821Z,2.20
2024-04-23T06:15:22.091Z,2.30
2024-04-23T06:17:54.937Z,2.92
2024-04-23T06:20:22.682Z,2.03
2024-04-23T06:22:54.119Z,2.20
2024-04-23T06:25:25.245Z,2.30
2024-04-23T06:27:52.938Z,2.08
2024-04-23T06:30:20.947Z,2.50
2024-04-23T06:32:51.428Z,2.80
2024-04-23T06:35:20.610Z,2.90
2024-04-23T06:37:49.450Z,2.70
2024-04-23T06:40:18.296Z,2.60
2024-04-23T06:42:49.462Z,2.47
2024-04-23T06:45:20.462Z,3.08
2024-04-23T06:48:29.875Z,3.40
2024-04-23T06:51:03.526Z,2.60
2024-04-23T06:53:50.728Z,2.28
2024-04-23T06:57:01.980Z,2.78
2024-04-23T06:59:32.048Z,2.90
2024-04-23T07:02:07.194Z,2.72
2024-04-23T07:04:44.412Z,2.60
2024-04-23T07:07:36.673Z,2.58
2024-04-23T07:10:07.744Z,2.33
2024-04-23T07:13:18.735Z,2.85
2024-04-23T07:16:29.379Z,2.50
2024-04-23T07:19:39.850Z,3.05
2024-04-23T07:22:51.166Z,2.35
2024-04-23T07:25:52.630Z,3.00
2024-04-23T07:28:23.179Z,4.13
2024-04-23T07:30:52.767Z,3.38
2024-04-23T07:33:22.157Z,3.45
2024-04-23T07:35:51.098Z,3.80
2024-04-23T07:38:20.184Z,3.60
2024-04-23T07:40:52.027Z,3.33
2024-04-23T07:43:23.442Z,3.80
2024-04-23T07:45:55.080Z,4.13
2024-04-23T07:48:27.720Z,3.40
2024-04-23T07:50:59.293Z,4.05
2024-04-23T07:53:29.819Z,3.22
2024-04-23T07:56:00.606Z,2.92
2024-04-23T07:58:31.409Z,3.75
2024-04-23T08:01:02.483Z,3.08
2024-04-23T08:03:35.729Z,3.88
2024-04-23T08:06:07.038Z,3.00
2024-04-23T08:08:39.882Z,2.95
2024-04-23T08:11:13.387Z,2.70
2024-04-23T08:13:57.270Z,3.75
2024-04-23T08:17:06.815Z,3.42
2024-04-23T08:20:17.521Z,3.00
2024-04-23T08:22:47.554Z,2.58
2024-04-23T08:25:33.236Z,2.58
2024-04-23T08:28:18.773Z,2.65
2024-04-23T08:30:57.781Z,3.05
2024-04-23T08:33:41.279Z,2.85
2024-04-23T08:36:23.015Z,4.03
2024-04-23T08:39:06.330Z,2.58
2024-04-23T08:42:13.237Z,3.20
2024-04-23T08:45:27.357Z,3.20
2024-04-23T08:48:37.785Z,3.13
2024-04-23T08:51:35.788Z,3.03
2024-04-23T08:54:03.985Z,3.25
2024-04-23T08:56:35.749Z,3.28
2024-04-23T08:59:11.294Z,3.55
2024-04-23T09:01:42.262Z,3.70
2024-04-23T09:04:10.614Z,3.42
2024-04-23T09:06:38.617Z,3.28
2024-04-23T09:09:07.279Z,2.88
2024-04-23T09:11:35.032Z,3.20
2024-04-23T09:14:03.268Z,3.15
2024-04-23T09:16:31.381Z,2.95
2024-04-23T09:18:59.115Z,4.60
2024-04-23T09:21:27.327Z,3.20
2024-04-23T09:23:54.956Z,2.92
2024-04-23T09:26:26.811Z,3.10
2024-04-23T09:28:54.526Z,3.50
2024-04-23T09:31:22.920Z,2.90
2024-04-23T09:34:05.549Z,2.88
2024-04-23T09:36:34.693Z,3.13
2024-04-23T09:39:05.348Z,3.03
2024-04-23T09:41:33.182Z,3.17
2024-04-23T09:44:03.957Z,3.25
2024-04-23T09:46:33.113Z,3.92
2024-04-23T09:49:06.188Z,2.72
2024-04-23T09:51:33.968Z,3.88
2024-04-23T09:54:03.088Z,5.30
2024-04-23T09:56:30.862Z,4.35
2024-04-23T09:58:59.476Z,2.88
2024-04-23T10:01:30.248Z,3.35
2024-04-23T10:04:01.744Z,3.10
2024-04-23T10:06:30.967Z,3.72
2024-04-23T10:09:13.875Z,3.10
2024-04-23T10:12:06.227Z,4.43
2024-04-23T10:14:44.720Z,3.20
2024-04-23T10:17:33.949Z,2.83
2024-04-23T10:20:03.638Z,3.42
2024-04-23T10:22:32.250Z,3.63
2024-04-23T10:25:00.102Z,2.80
2024-04-23T10:27:27.940Z,3.15
2024-04-23T10:29:56.576Z,2.88
2024-04-23T10:32:24.779Z,3.70
2024-04-23T10:34:54.496Z,3.20
2024-04-23T10:37:23.235Z,2.50
2024-04-23T10:39:52.133Z,2.72
2024-04-23T10:42:20.763Z,2.53
2024-04-23T10:44:48.661Z,3.17
2024-04-23T10:47:16.494Z,2.63
2024-04-23T10:49:44.235Z,2.50
2024-04-23T10:52:11.936Z,2.40
2024-04-23T10:54:39.983Z,2.85
2024-04-23T10:57:11.183Z,2.78
2024-04-23T10:59:39.807Z,2.13
2024-04-23T11:02:12.730Z,2.47
2024-04-23T11:04:47.971Z,2.80
2024-04-23T11:07:27.089Z,2.92
2024-04-23T11:10:02.267Z,2.80
2024-04-23T11:12:33.492Z,2.75
2024-04-23T11:15:01.264Z,2.53
2024-04-23T11:17:30.246Z,2.63
2024-04-23T11:20:01.471Z,2.40
2024-04-23T11:22:39.930Z,2.40
2024-04-23T11:25:08.806Z,2.45
2024-04-23T11:27:36.865Z,2.22
2024-04-23T11:30:10.500Z,2.40
2024-04-23T11:32:40.298Z,3.45
2024-04-23T11:35:09.597Z,2.35
2024-04-23T11:37:38.021Z,2.35
2024-04-23T11:40:06.292Z,2.30
2024-04-23T11:42:34.912Z,2.33
2024-04-23T11:45:04.366Z,1.90
2024-04-23T11:47:34.912Z,2.45
2024-04-23T11:50:06.907Z,2.30
2024-04-23T11:52:35.719Z,2.33
2024-04-23T11:55:07.686Z,2.30
2024-04-23T11:57:35.513Z,2.40
2024-04-23T12:00:05.468Z,2.35
2024-04-23T12:02:33.798Z,2.63
2024-04-23T12:05:05.811Z,2.03
2024-04-23T12:07:35.783Z,2.53
2024-04-23T12:10:06.542Z,2.55
2024-04-23T12:12:37.527Z,2.38
2024-04-23T12:15:07.124Z,2.63
2024-04-23T12:17:39.496Z,2.50
2024-04-23T12:20:11.753Z,2.78
2024-04-23T12:22:39.745Z,2.65
2024-04-23T12:25:07.672Z,2.97
2024-04-23T12:27:35.522Z,3.05
2024-04-23T12:30:10.783Z,3.47
2024-04-23T12:32:42.226Z,2.80
2024-04-23T12:35:10.683Z,3.00
2024-04-23T12:37:38.456Z,3.35
2024-04-23T12:40:08.513Z,3.95
2024-04-23T12:42:43.397Z,3.38
2024-04-23T12:45:13.201Z,3.20
2024-04-23T12:47:41.775Z,3.47
2024-04-23T12:50:10.090Z,3.40
2024-04-23T12:52:38.054Z,2.83
2024-04-23T12:55:06.631Z,2.97
2024-04-23T12:57:34.621Z,2.72
2024-04-23T13:00:02.254Z,3.03
2024-04-23T13:02:30.295Z,2.50
2024-04-23T13:04:58.110Z,2.15
2024-04-23T13:07:26.111Z,2.75
2024-04-23T13:09:53.822Z,2.33
2024-04-23T13:12:21.490Z,2.10
2024-04-23T13:14:49.180Z,2.33
2024-04-23T13:17:17.046Z,2.22
2024-04-23T13:19:50.063Z,2.13
2024-04-23T13:22:21.735Z,2.55
2024-04-23T13:24:49.392Z,1.60
2024-04-23T13:27:18.142Z,1.92
2024-04-23T13:29:48.166Z,2.10
2024-04-23T13:32:16.168Z,1.88
2024-04-23T13:34:43.882Z,2.00
2024-04-23T13:37:11.880Z,2.67
2024-04-23T13:39:40.235Z,1.85
2024-04-23T13:42:08.152Z,2.53
2024-04-23T13:44:37.516Z,1.77
2024-04-23T13:47:05.948Z,27.65
2024-04-23T13:49:36.854Z,56.33
2024-04-23T13:52:05.042Z,33.40
2024-04-23T13:54:32.789Z,29.48
2024-04-23T13:57:00.654Z,9.30
2024-04-23T13:59:28.636Z,10.55
2024-04-23T14:01:56.526Z,11.38
2024-04-23T14:04:25.001Z,11.13
2024-04-23T14:06:54.891Z,9.75
2024-04-23T14:09:22.550Z,11.43
2024-04-23T14:11:50.510Z,7.10
2024-04-23T14:14:18.438Z,7.97
2024-04-23T14:16:46.206Z,6.35
2024-04-23T14:19:13.955Z,7.97
2024-04-23T14:21:42.322Z,5.68
2024-04-23T14:24:10.357Z,4.97
2024-04-23T14:26:38.663Z,6.22
2024-04-23T14:29:06.502Z,5.78
2024-04-23T14:31:36.268Z,5.30
2024-04-23T14:34:07.318Z,4.60
2024-04-23T14:36:35.090Z,4.47
2024-04-23T14:39:02.823Z,4.00
2024-04-23T14:41:30.603Z,4.53
2024-04-23T14:43:58.543Z,4.30
2024-04-23T14:46:26.286Z,4.57
2024-04-23T14:48:53.985Z,4.13
2024-04-23T14:51:22.189Z,4.45
2024-04-23T14:53:53.285Z,3.47
2024-04-23T14:56:21.787Z,5.68
2024-04-23T14:58:52.709Z,5.57
2024-04-23T15:01:20.766Z,4.38
2024-04-23T15:03:48.620Z,4.38
2024-04-23T15:06:17.672Z,4.65
2024-04-23T15:08:45.383Z,4.07
2024-04-23T15:11:13.517Z,4.10
2024-04-23T15:13:41.443Z,3.92
2024-04-23T15:16:12.226Z,3.83
2024-04-23T15:18:41.734Z,3.50
2024-04-23T15:21:13.777Z,3.58
2024-04-23T15:23:41.694Z,3.28
2024-04-23T15:26:09.401Z,3.08
2024-04-23T15:28:44.784Z,3.60
2024-04-23T15:31:12.787Z,2.85
2024-04-23T15:33:42.068Z,3.88
2024-04-23T15:36:22.761Z,2.97
2024-04-23T15:38:58.970Z,2.58
2024-04-23T15:41:26.582Z,2.80
2024-04-23T15:43:54.381Z,2.58
2024-04-23T15:46:22.063Z,2.50
2024-04-23T15:48:49.944Z,2.58
2024-04-23T15:51:17.720Z,2.40
2024-04-23T15:53:45.349Z,3.20
2024-04-23T15:56:13.901Z,3.05
2024-04-23T15:58:41.835Z,2.83
2024-04-23T16:01:11.976Z,2.65
2024-04-23T16:03:42.829Z,2.10
2024-04-23T16:06:20.549Z,2.08
2024-04-23T16:08:51.167Z,2.00
2024-04-23T16:11:19.080Z,2.60
2024-04-23T16:13:46.808Z,2.28
2024-04-23T16:16:14.608Z,2.08
2024-04-23T16:18:42.471Z,2.88
2024-04-23T16:21:12.566Z,2.20
2024-04-23T16:23:40.751Z,2.50
2024-04-23T16:26:09.092Z,2.75
2024-04-23T16:28:37.168Z,1.95
2024-04-23T16:31:06.315Z,2.28
2024-04-23T16:33:34.953Z,1.90
2024-04-23T16:36:03.546Z,2.20
2024-04-23T16:38:31.268Z,2.13
2024-04-23T16:41:02.863Z,1.80
2024-04-23T16:43:32.335Z,2.60
2024-04-23T16:46:10.421Z,2.10
2024-04-23T16:48:39.007Z,1.75
2024-04-23T16:51:09.536Z,2.30
2024-04-23T16:53:40.531Z,1.60
2024-04-23T16:56:11.779Z,1.90
2024-04-23T16:58:39.649Z,1.48
2024-04-23T17:01:08.732Z,1.48
2024-04-23T17:03:36.687Z,1.85
2024-04-23T17:06:04.735Z,1.52
2024-04-23T17:08:32.864Z,1.58
2024-04-23T17:11:01.738Z,1.30
2024-04-23T17:13:29.621Z,1.70
2024-04-23T17:15:59.593Z,1.85
2024-04-23T17:18:27.886Z,1.63
2024-04-23T17:20:56.110Z,1.48
2024-04-23T17:23:23.938Z,1.10
2024-04-23T17:25:51.836Z,1.60
2024-04-23T17:28:19.733Z,1.65
2024-04-23T17:30:49.807Z,1.40
2024-04-23T17:33:20.018Z,1.10
2024-04-23T17:35:47.791Z,1.20
2024-04-23T17:38:15.554Z,1.20
2024-04-23T17:40:43.409Z,1.40
2024-04-23T17:43:11.199Z,1.52
2024-04-23T17:45:39.048Z,1.58
2024-04-23T17:48:07.057Z,1.55
2024-04-23T17:50:34.848Z,1.92
2024-04-23T17:53:02.527Z,1.77
2024-04-23T17:55:30.370Z,1.48
2024-04-23T17:57:58.199Z,1.33
2024-04-23T18:00:26.096Z,1.85
2024-04-23T18:02:53.944Z,1.65
2024-04-23T18:05:21.628Z,1.27
2024-04-23T18:07:50.670Z,1.38
2024-04-23T18:10:18.512Z,1.63
2024-04-23T18:12:47.404Z,1.73
2024-04-23T18:15:15.372Z,1.52
2024-04-23T18:17:43.222Z,1.20
2024-04-23T18:20:11.342Z,1.52
2024-04-23T18:22:39.092Z,1.13
2024-04-23T18:25:06.929Z,1.42
2024-04-23T18:27:34.894Z,1.20
2024-04-23T18:30:03.110Z,1.20
2024-04-23T18:32:30.851Z,1.10
2024-04-23T18:34:59.905Z,1.38
2024-04-23T18:37:27.854Z,1.25
2024-04-23T18:39:56.030Z,1.10
2024-04-23T18:42:24.068Z,1.33
2024-04-23T18:44:52.011Z,1.55
2024-04-23T18:47:19.905Z,1.25
2024-04-23T18:49:47.942Z,1.30
2024-04-23T18:52:15.870Z,1.35
2024-04-23T18:54:44.761Z,1.50
2024-04-23T18:57:17.117Z,1.50
2024-04-23T18:59:44.932Z,1.58
2024-04-23T19:02:12.852Z,1.25
2024-04-23T19:04:40.838Z,1.30
2024-04-23T19:07:09.063Z,1.50
2024-04-23T19:09:37.080Z,1.40
2024-04-23T19:12:04.946Z,1.63
2024-04-23T19:14:32.709Z,2.17
2024-04-23T19:17:00.618Z,1.70
2024-04-23T19:19:28.466Z,2.45
2024-04-23T19:22:01.370Z,2.05
2024-04-23T19:24:29.214Z,2.15
2024-04-23T19:26:56.965Z,1.42
2024-04-23T19:29:24.816Z,1.88
2024-04-23T19:31:54.250Z,2.17
2024-04-23T19:34:22.131Z,1.80
2024-04-23T19:36:49.791Z,1.80
2024-04-23T19:39:17.572Z,1.70
2024-04-23T19:41:45.262Z,2.35
2024-04-23T19:44:13.126Z,1.35
2024-04-23T19:46:45.911Z,1.92
2024-04-23T19:49:15.216Z,2.13
2024-04-23T19:51:43.625Z,2.10
2024-04-23T19:54:11.355Z,1.40
2024-04-23T19:56:51.138Z,2.30
2024-04-23T19:59:20.011Z,1.77
2024-04-23T20:01:47.938Z,2.13
2024-04-23T20:04:17.458Z,1.60
2024-04-23T20:06:45.310Z,1.60
2024-04-23T20:09:15.460Z,1.30
2024-04-23T20:11:44.457Z,1.88
2024-04-23T20:14:12.724Z,2.05
2024-04-23T20:16:40.450Z,2.53
2024-04-23T20:19:08.335Z,2.13
2024-04-23T20:21:39.113Z,2.42
2024-04-23T20:24:08.011Z,2.20
2024-04-23T20:26:35.748Z,1.63
2024-04-23T20:29:03.591Z,1.67
2024-04-23T20:31:31.290Z,2.33
2024-04-23T20:33:58.963Z,1.80
2024-04-23T20:36:26.910Z,1.80
2024-04-23T20:38:54.740Z,2.13
2024-04-23T20:41:22.513Z,1.73
2024-04-23T20:43:50.338Z,2.25
2024-04-23T20:46:19.860Z,1.77
2024-04-23T20:48:47.667Z,2.80
2024-04-23T20:51:16.466Z,2.38
2024-04-23T20:53:44.363Z,2.20
2024-04-23T20:56:12.186Z,2.63
2024-04-23T20:58:40.024Z,3.08
2024-04-23T21:01:12.161Z,4.28
2024-04-23T21:03:40.999Z,3.90
2024-04-23T21:06:11.129Z,4.03
2024-04-23T21:08:40.073Z,4.13
2024-04-23T21:11:25.994Z,3.63
2024-04-23T21:13:53.804Z,3.55
2024-04-23T21:16:21.604Z,4.72
2024-04-23T21:18:49.396Z,4.38
2024-04-23T21:21:19.924Z,3.80
2024-04-23T21:23:47.582Z,4.22
2024-04-23T21:26:15.430Z,4.50
2024-04-23T21:28:43.116Z,4.30
2024-04-23T21:31:10.898Z,4.32
2024-04-23T21:33:39.275Z,4.22
2024-04-23T21:36:08.160Z,4.07
2024-04-23T21:38:37.172Z,4.00
2024-04-23T21:41:09.591Z,3.65
2024-04-23T21:43:38.276Z,3.40
2024-04-23T21:46:10.660Z,3.90
2024-04-23T21:48:38.532Z,3.38
2024-04-23T21:51:11.089Z,4.03
2024-04-23T21:53:39.394Z,3.47
2024-04-23T21:56:08.032Z,3.22
2024-04-23T21:58:37.264Z,3.38
2024-04-23T22:01:14.528Z,3.10
2024-04-23T22:03:43.147Z,3.30
2024-04-23T22:06:14.135Z,2.92
2024-04-23T22:08:41.995Z,2.80
2024-04-23T22:11:10.174Z,2.95
2024-04-23T22:13:38.072Z,2.63
2024-04-23T22:16:06.226Z,2.30
2024-04-23T22:18:34.081Z,2.60
2024-04-23T22:21:01.783Z,2.60
2024-04-23T22:23:29.494Z,2.75
2024-04-23T22:25:57.205Z,2.55
2024-04-23T22:28:25.962Z,2.00
2024-04-23T22:30:53.714Z,1.90
2024-04-23T22:33:21.498Z,2.15
2024-04-23T22:35:49.174Z,1.70
2024-04-23T22:38:17.129Z,2.40
2024-04-23T22:40:44.895Z,2.03
2024-04-23T22:43:12.601Z,1.95
2024-04-23T22:45:40.359Z,1.80
2024-04-23T22:48:08.606Z,1.73
2024-04-23T22:50:36.378Z,1.90
2024-04-23T22:53:04.282Z,1.90
2024-04-23T22:55:31.958Z,1.98
2024-04-23T22:58:00.047Z,1.83
2024-04-23T23:00:27.744Z,1.67
2024-04-23T23:02:55.459Z,2.45
2024-04-23T23:05:23.177Z,2.78
2024-04-23T23:07:50.880Z,2.92
2024-04-23T23:10:18.569Z,2.92
2024-04-23T23:12:46.180Z,2.78
2024-04-23T23:15:13.837Z,3.53
2024-04-23T23:17:41.649Z,4.00
2024-04-23T23:20:10.356Z,4.35
2024-04-23T23:22:38.001Z,4.95
2024-04-23T23:25:06.253Z,5.20
2024-04-23T23:27:33.966Z,5.53
2024-04-23T23:30:01.577Z,6.00
2024-04-23T23:32:29.452Z,5.60
2024-04-23T23:34:57.254Z,6.97
2024-04-23T23:37:24.884Z,6.60
2024-04-23T23:39:52.547Z,7.22
2024-04-23T23:42:20.271Z,7.45
2024-04-23T23:44:47.976Z,7.97
2024-04-23T23:47:15.748Z,8.15
2024-04-23T23:49:43.581Z,9.73
2024-04-23T23:52:11.289Z,10.68
2024-04-23T23:54:38.963Z,9.30
2024-04-23T23:57:06.676Z,9.10
2024-04-23T23:59:34.414Z,9.82
